createdAt,value
2023-02-22T00:00:28.006Z,6.11
2023-02-22T00:00:57.752Z,6.11
2023-02-22T00:01:27.624Z,6.22
2023-02-22T00:01:57.914Z,6.22
2023-02-22T00:02:31.675Z,6.22
2023-02-22T00:03:01.029Z,6.22
2023-02-22T00:03:31.467Z,6.22
2023-02-22T00:04:02.608Z,6.22
2023-02-22T00:04:33.472Z,6.22
2023-02-22T00:05:04.615Z,6.22
2023-02-22T00:05:35.600Z,6.22
2023-02-22T00:06:06.604Z,6.22
2023-02-22T00:06:36.954Z,6.27
2023-02-22T00:07:09.402Z,6.38
2023-02-22T00:07:38.866Z,6.38
2023-02-22T00:08:12.461Z,6.38
2023-02-22T00:08:41.114Z,6.38
2023-02-22T00:09:11.875Z,6.38
2023-02-22T00:09:43.993Z,6.38
2023-02-22T00:10:14.166Z,6.38
2023-02-22T00:10:46.121Z,6.38
2023-02-22T00:11:16.860Z,6.38
2023-02-22T00:11:47.864Z,6.38
2023-02-22T00:12:17.880Z,6.38
2023-02-22T00:12:50.239Z,6.50
2023-02-22T00:13:20.887Z,6.50
2023-02-22T00:13:52.329Z,6.50
2023-02-22T00:14:21.875Z,6.50
2023-02-22T00:14:53.640Z,6.50
2023-02-22T00:15:24.132Z,6.50
2023-02-22T00:15:56.833Z,6.50
2023-02-22T00:16:26.025Z,6.50
2023-02-22T00:16:58.055Z,6.50
2023-02-22T00:17:27.864Z,6.50
2023-02-22T00:17:59.627Z,6.50
2023-02-22T00:18:30.873Z,6.38
2023-02-22T00:19:01.913Z,6.27
2023-02-22T00:19:31.926Z,6.22
2023-02-22T00:20:03.927Z,6.22
2023-02-22T00:20:40.842Z,6.22
2023-02-22T00:21:05.677Z,6.22
2023-02-22T00:21:35.994Z,6.27
2023-02-22T00:22:07.953Z,6.38
2023-02-22T00:22:38.867Z,6.38
2023-02-22T00:23:09.998Z,6.50
2023-02-22T00:23:40.920Z,6.50
2023-02-22T00:24:11.647Z,6.50
2023-02-22T00:24:42.618Z,6.50
2023-02-22T00:25:13.748Z,6.50
2023-02-22T00:25:44.583Z,6.50
2023-02-22T00:26:17.575Z,6.50
2023-02-22T00:26:46.202Z,6.61
2023-02-22T00:27:18.327Z,6.61
2023-02-22T00:27:47.856Z,6.61
2023-02-22T00:28:19.640Z,6.61
2023-02-22T00:28:50.867Z,6.61
2023-02-22T00:29:21.686Z,6.72
2023-02-22T00:29:52.132Z,6.72
2023-02-22T00:30:25.110Z,6.72
2023-02-22T00:30:53.932Z,6.72
2023-02-22T00:31:26.706Z,6.77
2023-02-22T00:31:56.023Z,6.77
2023-02-22T00:32:27.636Z,6.77
2023-02-22T00:32:57.880Z,6.77
2023-02-22T00:33:29.558Z,6.77
2023-02-22T00:34:01.653Z,6.77
2023-02-22T00:34:32.123Z,6.77
2023-02-22T00:35:02.543Z,6.77
2023-02-22T00:35:33.706Z,6.77
2023-02-22T00:36:03.952Z,6.77
2023-02-22T00:36:37.596Z,6.72
2023-02-22T00:37:05.961Z,6.72
2023-02-22T00:37:37.578Z,6.72
2023-02-22T00:38:08.414Z,6.72
2023-02-22T00:38:39.577Z,6.38
2023-02-22T00:39:10.939Z,6.27
2023-02-22T00:39:41.559Z,6.22
2023-02-22T00:40:12.300Z,6.22
2023-02-22T00:40:47.988Z,6.22
2023-02-22T00:41:14.060Z,6.22
2023-02-22T00:41:45.642Z,6.22
2023-02-22T00:42:15.896Z,6.11
2023-02-22T00:42:47.553Z,6.11
2023-02-22T00:43:17.900Z,6.11
2023-02-22T00:43:49.677Z,6.11
2023-02-22T00:44:21.005Z,6.11
2023-02-22T00:44:51.653Z,6.11
2023-02-22T00:45:22.770Z,6.11
2023-02-22T00:45:54.164Z,6.11
2023-02-22T00:46:23.886Z,6.11
2023-02-22T00:46:55.887Z,6.11
2023-02-22T00:47:25.889Z,6.11
2023-02-22T00:47:57.676Z,6.11
2023-02-22T00:48:27.851Z,6.11
2023-02-22T00:48:59.811Z,6.11
2023-02-22T00:49:30.894Z,6.11
2023-02-22T00:50:03.025Z,6.11
2023-02-22T00:50:31.876Z,6.11
2023-02-22T00:51:04.108Z,6.11
2023-02-22T00:51:34.793Z,6.11
2023-02-22T00:52:05.748Z,5.88
2023-02-22T00:52:35.882Z,5.61
2023-02-22T00:53:06.950Z,5.38
2023-02-22T00:53:37.901Z,5.27
2023-02-22T00:54:10.210Z,5.27
2023-02-22T00:54:40.839Z,5.27
2023-02-22T00:55:12.113Z,5.27
2023-02-22T00:55:41.958Z,5.27
2023-02-22T00:56:13.635Z,5.27
2023-02-22T00:56:44.084Z,5.27
2023-02-22T00:57:18.529Z,5.38
2023-02-22T00:57:46.079Z,5.50
2023-02-22T00:58:17.735Z,5.50
2023-02-22T00:58:47.911Z,5.50
2023-02-22T00:59:19.873Z,5.50
2023-02-22T00:59:50.918Z,5.50
2023-02-22T01:00:23.365Z,5.50
2023-02-22T01:00:57.540Z,5.50
2023-02-22T01:01:23.742Z,5.61
2023-02-22T01:01:54.108Z,5.61
2023-02-22T01:02:25.689Z,5.61
2023-02-22T01:02:56.043Z,5.61
2023-02-22T01:03:29.332Z,5.61
2023-02-22T01:03:57.854Z,5.61
2023-02-22T01:04:29.811Z,5.50
2023-02-22T01:05:02.065Z,5.38
2023-02-22T01:05:32.005Z,5.38
2023-02-22T01:06:02.875Z,5.22
2023-02-22T01:06:33.664Z,5.11
2023-02-22T01:07:04.054Z,5.00
2023-02-22T01:07:36.589Z,5.00
2023-02-22T01:08:05.906Z,5.00
2023-02-22T01:08:38.088Z,5.00
2023-02-22T01:09:07.888Z,5.00
2023-02-22T01:09:39.718Z,5.00
2023-02-22T01:10:12.153Z,5.00
2023-02-22T01:10:41.752Z,5.00
2023-02-22T01:11:11.854Z,5.00
2023-02-22T01:11:43.870Z,5.00
2023-02-22T01:12:14.157Z,5.00
2023-02-22T01:12:45.600Z,5.00
2023-02-22T01:13:15.873Z,5.00
2023-02-22T01:13:48.497Z,5.00
2023-02-22T01:14:17.874Z,5.11
2023-02-22T01:14:49.795Z,5.11
2023-02-22T01:15:21.669Z,5.11
2023-02-22T01:15:51.684Z,5.11
2023-02-22T01:16:21.980Z,5.11
2023-02-22T01:16:53.689Z,5.11
2023-02-22T01:17:23.961Z,5.00
2023-02-22T01:17:56.346Z,4.88
2023-02-22T01:18:26.419Z,4.88
2023-02-22T01:18:57.578Z,4.77
2023-02-22T01:19:27.870Z,4.77
2023-02-22T01:19:59.614Z,4.77
2023-02-22T01:20:39.649Z,4.77
2023-02-22T01:21:02.577Z,4.77
2023-02-22T01:21:31.997Z,4.72
2023-02-22T01:22:03.730Z,4.72
2023-02-22T01:22:33.974Z,4.72
2023-02-22T01:23:05.653Z,4.72
2023-02-22T01:23:35.867Z,4.72
2023-02-22T01:24:07.599Z,4.72
2023-02-22T01:24:37.863Z,4.72
2023-02-22T01:25:10.309Z,4.72
2023-02-22T01:25:40.889Z,4.72
2023-02-22T01:26:11.620Z,4.72
2023-02-22T01:26:41.913Z,4.72
2023-02-22T01:27:13.775Z,4.61
2023-02-22T01:27:44.057Z,4.61
2023-02-22T01:28:17.487Z,4.50
2023-02-22T01:28:47.735Z,4.50
2023-02-22T01:29:17.726Z,4.38
2023-02-22T01:29:47.913Z,4.38
2023-02-22T01:30:21.576Z,4.38
2023-02-22T01:30:51.066Z,4.38
2023-02-22T01:31:21.647Z,4.27
2023-02-22T01:31:52.563Z,4.27
2023-02-22T01:32:23.574Z,4.27
2023-02-22T01:32:53.897Z,4.27
2023-02-22T01:33:25.676Z,4.27
2023-02-22T01:33:55.864Z,4.27
2023-02-22T01:34:28.262Z,4.27
2023-02-22T01:34:57.995Z,4.27
2023-02-22T01:35:29.987Z,4.27
2023-02-22T01:36:01.039Z,4.27
2023-02-22T01:36:31.762Z,4.27
2023-02-22T01:37:01.899Z,4.50
2023-02-22T01:37:33.710Z,4.61
2023-02-22T01:38:03.942Z,4.61
2023-02-22T01:38:36.042Z,4.77
2023-02-22T01:39:07.019Z,4.77
2023-02-22T01:39:37.590Z,4.77
2023-02-22T01:40:08.564Z,4.77
2023-02-22T01:40:40.157Z,4.72
2023-02-22T01:41:11.564Z,4.72
2023-02-22T01:41:42.779Z,4.61
2023-02-22T01:42:12.009Z,4.50
2023-02-22T01:42:43.830Z,4.50
2023-02-22T01:43:14.097Z,4.50
2023-02-22T01:43:45.608Z,4.50
2023-02-22T01:44:15.869Z,4.50
2023-02-22T01:44:47.566Z,4.50
2023-02-22T01:45:19.050Z,4.61
2023-02-22T01:45:49.677Z,4.61
2023-02-22T01:46:21.005Z,4.61
2023-02-22T01:46:51.687Z,4.72
2023-02-22T01:47:21.918Z,4.72
2023-02-22T01:47:54.339Z,4.72
2023-02-22T01:48:23.865Z,4.77
2023-02-22T01:48:59.980Z,4.77
2023-02-22T01:49:25.857Z,4.88
2023-02-22T01:49:56.868Z,4.88
2023-02-22T01:50:28.999Z,4.88
2023-02-22T01:50:58.911Z,4.88
2023-02-22T01:51:31.757Z,4.88
2023-02-22T01:52:02.154Z,4.88
2023-02-22T01:52:32.521Z,4.88
2023-02-22T01:53:04.253Z,4.88
2023-02-22T01:53:34.548Z,4.77
2023-02-22T01:54:04.851Z,4.77
2023-02-22T01:54:37.935Z,4.77
2023-02-22T01:55:07.374Z,4.77
2023-02-22T01:55:38.969Z,4.72
2023-02-22T01:56:08.917Z,4.72
2023-02-22T01:56:41.560Z,4.72
2023-02-22T01:57:10.949Z,4.72
2023-02-22T01:57:42.751Z,4.72
2023-02-22T01:58:12.925Z,4.72
2023-02-22T01:58:44.853Z,4.72
2023-02-22T01:59:17.357Z,4.72
2023-02-22T01:59:47.045Z,4.72
2023-02-22T02:00:18.355Z,4.72
2023-02-22T02:00:49.649Z,4.72
2023-02-22T02:01:19.210Z,4.72
2023-02-22T02:01:51.540Z,4.72
2023-02-22T02:02:20.860Z,4.72
2023-02-22T02:02:52.579Z,4.77
2023-02-22T02:03:22.826Z,4.77
2023-02-22T02:03:54.796Z,4.77
2023-02-22T02:04:24.870Z,4.77
2023-02-22T02:04:56.818Z,4.77
2023-02-22T02:05:27.758Z,4.77
2023-02-22T02:05:58.570Z,4.72
2023-02-22T02:06:28.862Z,4.50
2023-02-22T02:07:01.669Z,4.27
2023-02-22T02:07:30.895Z,4.11
2023-02-22T02:08:03.777Z,3.88
2023-02-22T02:08:32.856Z,3.77
2023-02-22T02:09:04.850Z,3.72
2023-02-22T02:09:35.137Z,3.72
2023-02-22T02:10:07.261Z,3.72
2023-02-22T02:10:36.843Z,3.72
2023-02-22T02:11:09.206Z,3.72
2023-02-22T02:11:38.851Z,3.72
2023-02-22T02:12:12.486Z,3.88
2023-02-22T02:12:40.922Z,4.00
2023-02-22T02:13:12.006Z,4.11
2023-02-22T02:13:43.835Z,4.11
2023-02-22T02:14:13.963Z,4.11
2023-02-22T02:14:46.297Z,4.11
2023-02-22T02:15:16.623Z,4.11
2023-02-22T02:15:47.650Z,4.11
2023-02-22T02:16:17.838Z,4.11
2023-02-22T02:16:49.639Z,4.11
2023-02-22T02:17:20.846Z,4.00
2023-02-22T02:17:51.564Z,4.00
2023-02-22T02:18:22.033Z,4.00
2023-02-22T02:18:53.712Z,3.77
2023-02-22T02:19:23.849Z,3.72
2023-02-22T02:19:55.969Z,3.61
2023-02-22T02:20:26.559Z,3.61
2023-02-22T02:20:57.549Z,3.61
2023-02-22T02:21:27.841Z,3.61
2023-02-22T02:21:59.546Z,3.50
2023-02-22T02:22:30.829Z,3.50
2023-02-22T02:23:01.652Z,3.50
2023-02-22T02:23:32.069Z,3.50
2023-02-22T02:24:03.791Z,3.38
2023-02-22T02:24:34.028Z,3.38
2023-02-22T02:25:06.782Z,3.38
2023-02-22T02:25:36.372Z,3.38
2023-02-22T02:26:07.563Z,3.38
2023-02-22T02:26:37.873Z,3.38
2023-02-22T02:27:09.551Z,3.38
2023-02-22T02:27:40.898Z,3.38
2023-02-22T02:28:12.340Z,3.38
2023-02-22T02:28:41.925Z,3.27
2023-02-22T02:29:15.702Z,3.27
2023-02-22T02:29:44.057Z,3.22
2023-02-22T02:30:19.629Z,3.22
2023-02-22T02:30:46.811Z,3.22
2023-02-22T02:31:17.281Z,3.11
2023-02-22T02:31:49.036Z,3.11
2023-02-22T02:32:19.466Z,3.11
2023-02-22T02:32:51.542Z,3.00
2023-02-22T02:33:20.883Z,3.00
2023-02-22T02:33:52.713Z,3.00
2023-02-22T02:34:22.865Z,2.88
2023-02-22T02:34:54.574Z,2.88
2023-02-22T02:35:25.258Z,2.88
2023-02-22T02:35:57.806Z,2.88
2023-02-22T02:36:26.868Z,2.88
2023-02-22T02:36:58.557Z,2.88
2023-02-22T02:37:28.869Z,2.88
2023-02-22T02:38:01.562Z,2.88
2023-02-22T02:38:30.907Z,2.88
2023-02-22T02:39:03.273Z,2.88
2023-02-22T02:39:32.843Z,2.88
2023-02-22T02:40:05.451Z,2.88
2023-02-22T02:40:38.477Z,2.88
2023-02-22T02:41:06.601Z,2.77
2023-02-22T02:41:36.835Z,2.77
2023-02-22T02:42:08.526Z,2.77
2023-02-22T02:42:38.867Z,2.77
2023-02-22T02:43:11.587Z,2.77
2023-02-22T02:43:41.094Z,2.77
2023-02-22T02:44:12.788Z,2.77
2023-02-22T02:44:42.862Z,2.77
2023-02-22T02:45:15.449Z,2.77
2023-02-22T02:45:45.302Z,2.77
2023-02-22T02:46:16.560Z,2.77
2023-02-22T02:46:47.152Z,2.77
2023-02-22T02:47:18.643Z,2.77
2023-02-22T02:47:48.871Z,2.77
2023-02-22T02:48:21.711Z,2.77
2023-02-22T02:48:50.916Z,2.77
2023-02-22T02:49:22.552Z,2.77
2023-02-22T02:49:53.014Z,2.77
2023-02-22T02:50:24.934Z,2.88
2023-02-22T02:50:55.135Z,2.88
2023-02-22T02:51:26.564Z,3.00
2023-02-22T02:51:56.838Z,3.00
2023-02-22T02:52:28.823Z,3.00
2023-02-22T02:52:58.846Z,3.00
2023-02-22T02:53:30.877Z,3.00
2023-02-22T02:54:00.904Z,3.00
2023-02-22T02:54:32.575Z,3.00
2023-02-22T02:55:03.513Z,3.22
2023-02-22T02:55:34.647Z,3.27
2023-02-22T02:56:04.957Z,3.27
2023-02-22T02:56:37.183Z,3.38
2023-02-22T02:57:07.070Z,3.38
2023-02-22T02:57:38.607Z,3.38
2023-02-22T02:58:08.839Z,3.38
2023-02-22T02:58:41.543Z,3.38
2023-02-22T02:59:11.626Z,3.38
2023-02-22T02:59:43.081Z,3.38
2023-02-22T03:00:16.732Z,3.22
2023-02-22T03:00:52.053Z,3.22
2023-02-22T03:01:16.951Z,3.22
2023-02-22T03:01:46.626Z,3.22
2023-02-22T03:02:17.054Z,3.22
2023-02-22T03:02:48.558Z,3.22
2023-02-22T03:03:19.376Z,3.11
2023-02-22T03:03:51.773Z,3.11
2023-02-22T03:04:20.869Z,3.00
2023-02-22T03:04:52.894Z,2.88
2023-02-22T03:05:23.723Z,2.88
2023-02-22T03:05:55.594Z,2.77
2023-02-22T03:06:24.844Z,2.77
2023-02-22T03:06:56.619Z,2.72
2023-02-22T03:07:27.064Z,2.72
2023-02-22T03:07:58.546Z,2.72
2023-02-22T03:08:28.863Z,2.72
2023-02-22T03:09:01.577Z,2.72
2023-02-22T03:09:30.846Z,2.72
2023-02-22T03:10:02.824Z,2.72
2023-02-22T03:10:33.462Z,2.72
2023-02-22T03:11:04.637Z,2.72
2023-02-22T03:11:35.128Z,2.72
2023-02-22T03:12:06.596Z,2.77
2023-02-22T03:12:37.497Z,2.77
2023-02-22T03:13:08.527Z,2.88
2023-02-22T03:13:38.835Z,2.88
2023-02-22T03:14:11.584Z,2.88
2023-02-22T03:14:40.841Z,2.88
2023-02-22T03:15:14.844Z,2.88
2023-02-22T03:15:42.903Z,2.88
2023-02-22T03:16:14.602Z,2.77
2023-02-22T03:16:45.516Z,2.77
2023-02-22T03:17:16.536Z,2.77
2023-02-22T03:17:46.870Z,2.77
2023-02-22T03:18:18.576Z,2.77
2023-02-22T03:18:48.838Z,2.77
2023-02-22T03:19:21.847Z,2.72
2023-02-22T03:19:51.100Z,2.72
2023-02-22T03:20:23.025Z,2.77
2023-02-22T03:20:52.864Z,2.77
2023-02-22T03:21:24.605Z,2.77
2023-02-22T03:21:55.247Z,2.77
2023-02-22T03:22:26.816Z,2.77
2023-02-22T03:22:56.949Z,2.77
2023-02-22T03:23:28.593Z,2.72
2023-02-22T03:23:58.838Z,2.72
2023-02-22T03:24:31.562Z,2.72
2023-02-22T03:25:01.125Z,2.72
2023-02-22T03:25:32.949Z,2.72
2023-02-22T03:26:03.522Z,2.77
2023-02-22T03:26:34.553Z,2.77
2023-02-22T03:27:04.880Z,2.77
2023-02-22T03:27:36.571Z,2.77
2023-02-22T03:28:06.954Z,2.77
2023-02-22T03:28:38.545Z,2.77
2023-02-22T03:29:08.872Z,2.77
2023-02-22T03:29:41.601Z,2.72
2023-02-22T03:30:12.085Z,2.61
2023-02-22T03:30:42.627Z,2.61
2023-02-22T03:31:12.913Z,2.50
2023-02-22T03:31:44.650Z,2.50
2023-02-22T03:32:17.026Z,2.50
2023-02-22T03:32:47.216Z,2.38
2023-02-22T03:33:16.873Z,2.38
2023-02-22T03:33:48.510Z,2.38
2023-02-22T03:34:18.880Z,2.27
2023-02-22T03:34:51.557Z,2.27
2023-02-22T03:35:21.669Z,2.27
2023-02-22T03:35:52.618Z,2.22
2023-02-22T03:36:22.889Z,2.22
2023-02-22T03:36:54.601Z,2.11
2023-02-22T03:37:24.894Z,2.11
2023-02-22T03:37:56.544Z,2.11
2023-02-22T03:38:26.892Z,2.11
2023-02-22T03:38:58.762Z,2.00
2023-02-22T03:39:29.527Z,2.00
2023-02-22T03:40:01.709Z,2.00
2023-02-22T03:40:38.632Z,2.00
2023-02-22T03:41:02.572Z,2.00
2023-02-22T03:41:33.521Z,2.00
2023-02-22T03:42:04.670Z,2.00
2023-02-22T03:42:36.532Z,2.00
2023-02-22T03:43:06.589Z,2.00
2023-02-22T03:43:37.106Z,2.00
2023-02-22T03:44:08.576Z,2.00
2023-02-22T03:44:38.873Z,2.00
2023-02-22T03:45:12.273Z,2.00
2023-02-22T03:45:40.904Z,2.00
2023-02-22T03:46:12.982Z,2.00
2023-02-22T03:46:42.958Z,2.00
2023-02-22T03:47:14.576Z,2.00
2023-02-22T03:47:44.841Z,2.00
2023-02-22T03:48:16.545Z,2.00
2023-02-22T03:48:46.833Z,2.11
2023-02-22T03:49:18.531Z,2.11
2023-02-22T03:49:48.905Z,2.27
2023-02-22T03:50:22.305Z,2.50
2023-02-22T03:50:50.820Z,2.61
2023-02-22T03:51:22.768Z,2.61
2023-02-22T03:51:52.865Z,2.61
2023-02-22T03:52:24.569Z,2.38
2023-02-22T03:52:55.615Z,2.27
2023-02-22T03:53:25.860Z,2.27
2023-02-22T03:53:56.910Z,2.27
2023-02-22T03:54:28.541Z,2.27
2023-02-22T03:54:58.845Z,2.27
2023-02-22T03:55:32.562Z,2.27
2023-02-22T03:56:00.831Z,2.27
2023-02-22T03:56:34.441Z,2.27
2023-02-22T03:57:03.536Z,2.22
2023-02-22T03:57:35.667Z,2.22
2023-02-22T03:58:04.856Z,2.11
2023-02-22T03:58:36.634Z,2.00
2023-02-22T03:59:06.870Z,1.88
2023-02-22T03:59:39.176Z,1.77
2023-02-22T04:00:09.924Z,1.77
2023-02-22T04:00:47.460Z,1.77
2023-02-22T04:01:10.864Z,1.72
2023-02-22T04:01:42.584Z,1.61
2023-02-22T04:02:12.878Z,1.61
2023-02-22T04:02:44.721Z,1.50
2023-02-22T04:03:17.859Z,1.50
2023-02-22T04:03:46.665Z,1.50
2023-02-22T04:04:16.958Z,1.50
2023-02-22T04:04:48.711Z,1.72
2023-02-22T04:05:19.324Z,1.77
2023-02-22T04:05:51.648Z,1.77
2023-02-22T04:06:20.999Z,1.77
2023-02-22T04:06:52.596Z,1.77
2023-02-22T04:07:22.886Z,1.77
2023-02-22T04:07:54.558Z,1.77
2023-02-22T04:08:25.016Z,1.77
2023-02-22T04:08:56.592Z,1.77
2023-02-22T04:09:27.007Z,1.77
2023-02-22T04:09:58.644Z,1.77
2023-02-22T04:10:29.987Z,1.77
2023-02-22T04:11:01.610Z,1.77
2023-02-22T04:11:30.823Z,1.77
2023-02-22T04:12:02.680Z,1.77
2023-02-22T04:12:32.815Z,1.77
2023-02-22T04:13:05.253Z,1.77
2023-02-22T04:13:35.163Z,1.77
2023-02-22T04:14:06.681Z,1.88
2023-02-22T04:14:36.993Z,2.00
2023-02-22T04:15:09.962Z,2.11
2023-02-22T04:15:39.033Z,2.11
2023-02-22T04:16:11.642Z,2.11
2023-02-22T04:16:40.851Z,2.11
2023-02-22T04:17:12.567Z,2.00
2023-02-22T04:17:42.883Z,1.77
2023-02-22T04:18:14.860Z,1.77
2023-02-22T04:18:45.290Z,1.77
2023-02-22T04:19:16.551Z,1.72
2023-02-22T04:19:46.848Z,1.72
2023-02-22T04:20:19.018Z,1.72
2023-02-22T04:20:48.860Z,1.72
2023-02-22T04:21:21.629Z,1.61
2023-02-22T04:21:50.882Z,1.61
2023-02-22T04:22:22.587Z,1.61
2023-02-22T04:22:52.937Z,1.50
2023-02-22T04:23:24.527Z,1.50
2023-02-22T04:23:55.236Z,1.50
2023-02-22T04:24:26.548Z,1.50
2023-02-22T04:24:56.878Z,1.50
2023-02-22T04:25:28.998Z,1.61
2023-02-22T04:25:59.083Z,1.61
2023-02-22T04:26:31.732Z,1.72
2023-02-22T04:27:01.182Z,1.72
2023-02-22T04:27:32.539Z,1.88
2023-02-22T04:28:02.995Z,2.00
2023-02-22T04:28:34.541Z,2.11
2023-02-22T04:29:05.005Z,2.22
2023-02-22T04:29:36.588Z,2.27
2023-02-22T04:30:07.621Z,2.50
2023-02-22T04:30:38.660Z,2.50
2023-02-22T04:31:08.929Z,2.50
2023-02-22T04:31:41.631Z,2.61
2023-02-22T04:32:10.964Z,2.61
2023-02-22T04:32:42.590Z,2.50
2023-02-22T04:33:12.852Z,2.50
2023-02-22T04:33:44.671Z,2.38
2023-02-22T04:34:19.053Z,2.38
2023-02-22T04:34:46.556Z,2.38
2023-02-22T04:35:17.238Z,2.38
2023-02-22T04:35:48.514Z,2.61
2023-02-22T04:36:19.104Z,2.61
2023-02-22T04:36:51.519Z,2.61
2023-02-22T04:37:21.291Z,2.61
2023-02-22T04:37:52.502Z,2.61
2023-02-22T04:38:22.807Z,2.61
2023-02-22T04:38:54.566Z,2.61
2023-02-22T04:39:24.870Z,2.61
2023-02-22T04:39:57.073Z,2.61
2023-02-22T04:40:37.025Z,2.72
2023-02-22T04:40:58.505Z,2.72
2023-02-22T04:41:28.847Z,2.72
2023-02-22T04:42:01.554Z,2.72
2023-02-22T04:42:30.825Z,2.61
2023-02-22T04:43:02.516Z,2.61
2023-02-22T04:43:32.811Z,2.38
2023-02-22T04:44:05.025Z,2.38
2023-02-22T04:44:35.157Z,2.27
2023-02-22T04:45:07.526Z,2.27
2023-02-22T04:45:37.000Z,2.27
2023-02-22T04:46:08.645Z,2.22
2023-02-22T04:46:39.003Z,2.22
2023-02-22T04:47:11.503Z,2.22
2023-02-22T04:47:40.835Z,2.22
2023-02-22T04:48:12.713Z,2.22
2023-02-22T04:48:42.856Z,2.27
2023-02-22T04:49:14.776Z,2.38
2023-02-22T04:49:44.813Z,2.72
2023-02-22T04:50:16.963Z,3.11
2023-02-22T04:50:47.228Z,3.27
2023-02-22T04:51:18.988Z,3.61
2023-02-22T04:51:48.892Z,3.72
2023-02-22T04:52:21.507Z,3.72
2023-02-22T04:52:50.839Z,3.72
2023-02-22T04:53:21.855Z,3.72
2023-02-22T04:53:52.841Z,3.72
2023-02-22T04:54:24.594Z,3.72
2023-02-22T04:54:55.107Z,3.72
2023-02-22T04:55:26.983Z,3.72
2023-02-22T04:55:57.126Z,3.72
2023-02-22T04:56:28.537Z,3.72
2023-02-22T04:56:58.867Z,3.61
2023-02-22T04:57:31.560Z,3.50
2023-02-22T04:58:00.955Z,3.50
2023-02-22T04:58:32.520Z,3.50
2023-02-22T04:59:03.172Z,3.50
2023-02-22T04:59:34.577Z,3.50
2023-02-22T05:00:04.957Z,3.61
2023-02-22T05:00:37.764Z,3.72
2023-02-22T05:01:07.023Z,3.77
2023-02-22T05:01:38.547Z,3.88
2023-02-22T05:02:09.058Z,4.00
2023-02-22T05:02:42.481Z,4.00
2023-02-22T05:03:10.865Z,4.00
2023-02-22T05:03:42.599Z,4.11
2023-02-22T05:04:13.450Z,4.11
2023-02-22T05:04:45.073Z,4.11
2023-02-22T05:05:18.121Z,4.00
2023-02-22T05:05:46.510Z,3.72
2023-02-22T05:06:16.849Z,3.38
2023-02-22T05:06:49.244Z,2.88
2023-02-22T05:07:18.952Z,2.50
2023-02-22T05:07:51.537Z,2.38
2023-02-22T05:08:20.814Z,2.38
2023-02-22T05:08:52.630Z,2.38
2023-02-22T05:09:23.024Z,2.38
2023-02-22T05:09:54.500Z,2.38
2023-02-22T05:10:25.254Z,2.38
2023-02-22T05:10:56.535Z,2.38
2023-02-22T05:11:26.809Z,2.22
2023-02-22T05:11:58.571Z,2.22
2023-02-22T05:12:28.909Z,2.22
2023-02-22T05:13:03.967Z,2.22
2023-02-22T05:13:30.847Z,2.22
2023-02-22T05:14:02.540Z,2.27
2023-02-22T05:14:32.822Z,2.38
2023-02-22T05:15:04.589Z,2.50
2023-02-22T05:15:36.213Z,2.50
2023-02-22T05:16:06.563Z,2.50
2023-02-22T05:16:36.809Z,2.50
2023-02-22T05:17:08.544Z,2.50
2023-02-22T05:17:39.356Z,2.50
2023-02-22T05:18:11.512Z,2.38
2023-02-22T05:18:40.800Z,2.38
2023-02-22T05:19:12.799Z,2.22
2023-02-22T05:19:42.816Z,2.11
2023-02-22T05:20:16.504Z,2.00
2023-02-22T05:20:46.169Z,1.77
2023-02-22T05:21:16.948Z,1.72
2023-02-22T05:21:46.841Z,1.61
2023-02-22T05:22:18.722Z,1.61
2023-02-22T05:22:48.832Z,1.61
2023-02-22T05:23:21.526Z,1.61
2023-02-22T05:23:50.821Z,1.61
2023-02-22T05:24:22.542Z,1.61
2023-02-22T05:24:53.002Z,1.61
2023-02-22T05:25:25.059Z,1.61
2023-02-22T05:25:55.366Z,1.61
2023-02-22T05:26:26.745Z,1.61
2023-02-22T05:26:58.815Z,1.61
2023-02-22T05:27:28.856Z,1.72
2023-02-22T05:27:58.793Z,1.72
2023-02-22T05:28:31.707Z,1.77
2023-02-22T05:29:01.173Z,1.77
2023-02-22T05:29:32.815Z,1.77
2023-02-22T05:30:02.982Z,1.77
2023-02-22T05:30:35.364Z,1.77
2023-02-22T05:31:05.625Z,1.77
2023-02-22T05:31:36.888Z,1.77
2023-02-22T05:32:07.037Z,1.77
2023-02-22T05:32:38.484Z,1.77
2023-02-22T05:33:08.833Z,1.77
2023-02-22T05:33:41.534Z,1.88
2023-02-22T05:34:10.884Z,1.88
2023-02-22T05:34:42.502Z,1.88
2023-02-22T05:35:13.245Z,1.88
2023-02-22T05:35:44.796Z,2.00
2023-02-22T05:36:16.922Z,2.00
2023-02-22T05:36:46.556Z,2.00
2023-02-22T05:37:16.828Z,2.11
2023-02-22T05:37:48.516Z,2.11
2023-02-22T05:38:18.870Z,2.11
2023-02-22T05:38:51.519Z,2.22
2023-02-22T05:39:20.850Z,2.22
2023-02-22T05:39:52.518Z,2.22
2023-02-22T05:40:24.030Z,2.27
2023-02-22T05:40:54.518Z,2.38
2023-02-22T05:41:24.861Z,2.38
2023-02-22T05:41:56.533Z,2.61
2023-02-22T05:42:26.819Z,2.61
2023-02-22T05:42:58.522Z,2.61
2023-02-22T05:43:28.912Z,2.72
2023-02-22T05:44:01.518Z,2.88
2023-02-22T05:44:31.471Z,3.00
2023-02-22T05:45:02.933Z,3.11
2023-02-22T05:45:33.665Z,3.27
2023-02-22T05:46:04.651Z,3.27
2023-02-22T05:46:35.169Z,3.27
2023-02-22T05:47:07.080Z,3.11
2023-02-22T05:47:36.903Z,3.00
2023-02-22T05:48:08.502Z,2.72
2023-02-22T05:48:38.830Z,2.61
2023-02-22T05:49:11.545Z,2.50
2023-02-22T05:49:40.820Z,2.38
2023-02-22T05:50:13.170Z,2.27
2023-02-22T05:50:42.790Z,2.27
2023-02-22T05:51:15.221Z,2.27
2023-02-22T05:51:44.932Z,2.27
2023-02-22T05:52:16.483Z,2.27
2023-02-22T05:52:46.841Z,2.27
2023-02-22T05:53:17.809Z,2.11
2023-02-22T05:53:48.825Z,2.11
2023-02-22T05:54:21.518Z,2.00
2023-02-22T05:54:50.852Z,2.00
2023-02-22T05:55:23.025Z,1.88
2023-02-22T05:55:52.845Z,1.77
2023-02-22T05:56:24.506Z,1.72
2023-02-22T05:56:55.127Z,1.72
2023-02-22T05:57:26.548Z,1.61
2023-02-22T05:57:57.467Z,1.61
2023-02-22T05:58:28.538Z,1.61
2023-02-22T05:58:59.095Z,1.50
2023-02-22T05:59:31.534Z,1.50
2023-02-22T06:00:01.755Z,1.50
2023-02-22T06:00:35.162Z,1.38
2023-02-22T06:01:03.566Z,1.38
2023-02-22T06:01:34.730Z,1.27
2023-02-22T06:02:05.399Z,1.27
2023-02-22T06:02:36.689Z,1.27
2023-02-22T06:03:07.020Z,1.27
2023-02-22T06:03:38.652Z,1.27
2023-02-22T06:04:08.989Z,1.27
2023-02-22T06:04:41.676Z,1.27
2023-02-22T06:05:11.502Z,1.27
2023-02-22T06:05:42.714Z,1.27
2023-02-22T06:06:13.052Z,1.27
2023-02-22T06:06:44.940Z,1.27
2023-02-22T06:07:17.101Z,1.27
2023-02-22T06:07:46.710Z,1.27
2023-02-22T06:08:16.948Z,1.27
2023-02-22T06:08:48.633Z,1.27
2023-02-22T06:09:18.970Z,1.27
2023-02-22T06:09:52.321Z,1.27
2023-02-22T06:10:21.372Z,1.38
2023-02-22T06:10:52.830Z,1.38
2023-02-22T06:11:23.509Z,1.50
2023-02-22T06:11:54.718Z,1.61
2023-02-22T06:12:24.999Z,1.61
2023-02-22T06:12:56.741Z,1.72
2023-02-22T06:13:26.940Z,1.72
2023-02-22T06:13:59.237Z,1.72
2023-02-22T06:14:29.012Z,1.72
2023-02-22T06:15:01.906Z,1.72
2023-02-22T06:15:31.762Z,1.72
2023-02-22T06:16:02.755Z,1.72
2023-02-22T06:16:33.023Z,1.72
2023-02-22T06:17:04.755Z,1.72
2023-02-22T06:17:35.262Z,1.72
2023-02-22T06:18:06.749Z,1.61
2023-02-22T06:18:37.013Z,1.61
2023-02-22T06:19:08.667Z,1.50
2023-02-22T06:19:39.060Z,1.50
2023-02-22T06:20:12.038Z,1.50
2023-02-22T06:20:40.979Z,1.50
2023-02-22T06:21:12.658Z,1.50
2023-02-22T06:21:42.961Z,1.38
2023-02-22T06:22:15.408Z,1.38
2023-02-22T06:22:45.972Z,1.50
2023-02-22T06:23:16.631Z,1.50
2023-02-22T06:23:46.943Z,1.50
2023-02-22T06:24:18.682Z,1.50
2023-02-22T06:24:49.492Z,1.50
2023-02-22T06:25:22.222Z,1.50
2023-02-22T06:25:50.966Z,1.50
2023-02-22T06:26:22.856Z,1.61
2023-02-22T06:26:53.008Z,1.72
2023-02-22T06:27:25.168Z,1.72
2023-02-22T06:27:55.308Z,1.77
2023-02-22T06:28:26.683Z,1.77
2023-02-22T06:28:57.045Z,1.77
2023-02-22T06:29:28.649Z,1.88
2023-02-22T06:29:59.002Z,2.11
2023-02-22T06:30:33.153Z,2.22
2023-02-22T06:31:01.250Z,2.22
2023-02-22T06:31:32.812Z,2.22
2023-02-22T06:32:03.138Z,2.22
2023-02-22T06:32:34.709Z,2.22
2023-02-22T06:33:05.019Z,2.22
2023-02-22T06:33:36.731Z,2.22
2023-02-22T06:34:07.019Z,2.22
2023-02-22T06:34:39.055Z,2.22
2023-02-22T06:35:09.465Z,2.22
2023-02-22T06:35:41.959Z,2.22
2023-02-22T06:36:10.973Z,2.22
2023-02-22T06:36:42.647Z,2.22
2023-02-22T06:37:12.959Z,2.11
2023-02-22T06:37:44.981Z,2.11
2023-02-22T06:38:17.478Z,2.11
2023-02-22T06:38:46.648Z,2.11
2023-02-22T06:39:16.965Z,2.00
2023-02-22T06:39:48.648Z,2.00
2023-02-22T06:40:19.399Z,2.00
2023-02-22T06:40:51.786Z,1.88
2023-02-22T06:41:20.957Z,1.88
2023-02-22T06:41:53.687Z,1.88
2023-02-22T06:42:23.037Z,1.77
2023-02-22T06:42:54.755Z,1.77
2023-02-22T06:43:25.015Z,1.77
2023-02-22T06:43:56.656Z,1.77
2023-02-22T06:44:27.010Z,1.88
2023-02-22T06:44:58.773Z,2.22
2023-02-22T06:45:29.735Z,2.27
2023-02-22T06:46:01.781Z,2.38
2023-02-22T06:46:31.002Z,2.50
2023-02-22T06:47:02.632Z,2.50
2023-02-22T06:47:32.965Z,2.50
2023-02-22T06:48:04.740Z,2.27
2023-02-22T06:48:35.951Z,2.22
2023-02-22T06:49:06.741Z,2.00
2023-02-22T06:49:37.010Z,2.00
2023-02-22T06:50:09.065Z,1.88
2023-02-22T06:50:38.945Z,1.88
2023-02-22T06:51:11.647Z,1.88
2023-02-22T06:51:41.321Z,2.11
2023-02-22T06:52:12.648Z,2.11
2023-02-22T06:52:43.019Z,2.11